createdAt,value
2018-01-11T00:01:14.380Z,17.53
2018-01-11T00:03:40.786Z,18.57
2018-01-11T00:06:07.356Z,17.33
2018-01-11T00:08:33.756Z,16.87
2018-01-11T00:11:00.159Z,17.77
2018-01-11T00:13:26.474Z,32.43
2018-01-11T00:15:52.820Z,26.63
2018-01-11T00:18:19.223Z,19.33
2018-01-11T00:20:46.261Z,20.50
2018-01-11T00:23:12.654Z,22.73
2018-01-11T00:25:38.991Z,20.03
2018-01-11T00:28:05.300Z,18.33
2018-01-11T00:30:31.685Z,19.17
2018-01-11T00:32:58.068Z,19.50
2018-01-11T00:35:24.417Z,18.50
2018-01-11T00:37:50.803Z,21.40
2018-01-11T00:40:17.198Z,18.53
2018-01-11T00:42:43.573Z,19.70
2018-01-11T00:45:09.928Z,18.60
2018-01-11T00:47:36.435Z,18.10
2018-01-11T00:50:02.770Z,20.40
2018-01-11T00:52:29.144Z,17.43
2018-01-11T00:54:55.523Z,17.70
2018-01-11T00:57:21.815Z,19.10
2018-01-11T00:59:48.187Z,17.00
2018-01-11T01:02:14.582Z,15.80
2018-01-11T01:04:40.949Z,18.13
2018-01-11T01:07:07.279Z,16.30
2018-01-11T01:09:33.676Z,15.57
2018-01-11T01:12:00.790Z,18.27
2018-01-11T01:14:28.192Z,20.47
2018-01-11T01:37:47.484Z,19.40
2018-01-11T01:40:14.020Z,20.97
2018-01-11T01:42:40.836Z,20.90
2018-01-11T01:45:07.753Z,18.87
2018-01-11T01:47:34.117Z,18.90
2018-01-11T01:50:00.777Z,19.57
2018-01-11T01:52:27.212Z,20.87
2018-01-11T01:54:53.620Z,19.47
2018-01-11T01:57:20.458Z,20.30
2018-01-11T01:59:47.533Z,21.90
2018-01-11T02:02:14.763Z,23.93
2018-01-11T02:04:41.332Z,21.67
2018-01-11T02:07:07.886Z,22.43
2018-01-11T02:09:34.534Z,25.30
2018-01-11T02:12:01.218Z,23.10
2018-01-11T02:14:27.785Z,26.07
2018-01-11T02:16:55.141Z,23.63
2018-01-11T02:19:21.691Z,22.83
2018-01-11T02:21:48.163Z,25.30
2018-01-11T02:24:14.812Z,22.50
2018-01-11T02:26:41.242Z,25.40
2018-01-11T02:29:07.817Z,26.30
2018-01-11T02:31:34.457Z,26.17
2018-01-11T02:34:01.413Z,26.57
2018-01-11T02:36:27.897Z,25.67
2018-01-11T02:38:54.552Z,26.13
2018-01-11T02:41:21.508Z,29.07
2018-01-11T02:43:48.834Z,23.47
2018-01-11T02:46:15.738Z,25.07
2018-01-11T02:48:42.765Z,26.00
2018-01-11T02:51:09.807Z,26.23
2018-01-11T02:53:37.253Z,27.20
2018-01-11T02:56:04.558Z,27.10
2018-01-11T02:58:31.226Z,23.80
2018-01-11T03:00:59.431Z,26.13
2018-01-11T03:03:26.546Z,25.00
2018-01-11T03:05:52.945Z,25.70
2018-01-11T03:08:19.317Z,23.80
2018-01-11T03:10:46.105Z,25.57
2018-01-11T03:13:13.964Z,21.20
2018-01-11T03:15:40.385Z,23.50
2018-01-11T03:18:06.787Z,22.37
2018-01-11T03:20:33.248Z,23.70
2018-01-11T03:22:59.679Z,25.27
2018-01-11T03:25:26.856Z,23.87
2018-01-11T03:27:53.447Z,23.40
2018-01-11T03:30:19.827Z,24.50
2018-01-11T03:32:46.245Z,25.47
2018-01-11T03:35:12.644Z,25.03
2018-01-11T03:37:39.069Z,32.87
2018-01-11T03:40:05.660Z,27.83
2018-01-11T03:42:32.067Z,25.50
2018-01-11T03:44:59.502Z,25.33
2018-01-11T03:47:25.931Z,24.27
2018-01-11T03:49:52.288Z,25.00
2018-01-11T03:52:18.628Z,22.03
2018-01-11T03:54:45.025Z,22.90
2018-01-11T03:57:11.459Z,25.87
2018-01-11T03:59:37.810Z,25.40
2018-01-11T04:04:37.446Z,23.17
2018-01-11T04:07:03.882Z,24.33
2018-01-11T04:09:30.327Z,24.93
2018-01-11T04:11:56.791Z,26.50
2018-01-11T04:14:23.140Z,23.50
2018-01-11T04:16:49.804Z,24.50
2018-01-11T04:19:17.352Z,23.73
2018-01-11T04:21:44.459Z,20.40
2018-01-11T04:24:10.887Z,22.63
2018-01-11T04:26:37.673Z,23.60
2018-01-11T04:29:04.047Z,25.20
2018-01-11T04:31:30.393Z,21.60
2018-01-11T04:33:57.312Z,23.17
2018-01-11T04:36:25.391Z,21.40
2018-01-11T04:38:51.815Z,21.80
2018-01-11T04:41:19.856Z,20.10
2018-01-11T04:43:46.321Z,22.67
2018-01-11T04:46:12.755Z,24.00
2018-01-11T04:48:46.296Z,23.43
2018-01-11T04:51:12.776Z,23.67
2018-01-11T04:53:39.192Z,22.60
2018-01-11T04:56:05.787Z,24.47
2018-01-11T04:58:32.798Z,24.10
2018-01-11T05:00:59.289Z,22.60
2018-01-11T05:03:25.694Z,24.37
2018-01-11T05:05:52.097Z,23.80
2018-01-11T05:08:18.503Z,24.20
2018-01-11T05:10:46.107Z,24.13
2018-01-11T05:13:14.240Z,26.07
2018-01-11T05:18:13.847Z,25.57
2018-01-11T05:20:43.877Z,24.70
2018-01-11T05:23:10.378Z,26.97
2018-01-11T05:25:36.770Z,25.30
2018-01-11T05:28:03.408Z,27.90
2018-01-11T05:30:29.829Z,26.27
2018-01-11T05:32:57.076Z,24.97
2018-01-11T05:35:24.226Z,24.40
2018-01-11T05:37:50.613Z,26.20
2018-01-11T05:40:17.918Z,23.30
2018-01-11T05:42:45.217Z,26.60
2018-01-11T05:45:12.340Z,27.50
2018-01-11T05:47:39.463Z,27.97
2018-01-11T05:50:05.843Z,26.17
2018-01-11T05:52:32.232Z,24.60
2018-01-11T05:54:58.555Z,26.93
2018-01-11T05:57:25.120Z,28.03
2018-01-11T05:59:51.905Z,26.07
2018-01-11T06:02:18.789Z,27.40
2018-01-11T06:04:45.489Z,28.53
2018-01-11T06:07:13.617Z,28.30
2018-01-11T06:09:41.568Z,27.10
2018-01-11T06:12:09.838Z,29.30
2018-01-11T06:14:37.128Z,24.60
2018-01-11T06:17:04.207Z,26.77
2018-01-11T06:19:32.108Z,28.23
2018-01-11T06:21:59.295Z,25.17
2018-01-11T06:24:26.786Z,32.33
2018-01-11T06:26:53.215Z,26.50
2018-01-11T06:29:20.753Z,25.90
2018-01-11T06:31:48.673Z,29.73
2018-01-11T06:34:15.478Z,27.17
2018-01-11T06:36:43.645Z,28.37
2018-01-11T06:39:10.136Z,26.50
2018-01-11T06:41:36.525Z,28.70
2018-01-11T06:44:03.064Z,26.00
2018-01-11T06:46:31.179Z,27.27
2018-01-11T06:48:58.720Z,26.63
2018-01-11T06:51:25.157Z,26.13
2018-01-11T06:53:52.343Z,25.80
2018-01-11T06:56:18.783Z,27.33
2018-01-11T06:58:46.319Z,23.10
2018-01-11T07:01:12.720Z,29.00
2018-01-11T07:03:39.914Z,27.37
2018-01-11T07:06:06.711Z,24.83
2018-01-11T07:08:33.547Z,29.40
2018-01-11T07:11:00.058Z,38.57
2018-01-11T07:13:26.521Z,26.67
2018-01-11T07:15:53.036Z,31.10
2018-01-11T07:18:19.991Z,29.97
2018-01-11T07:20:47.477Z,60.63
2018-01-11T07:23:13.887Z,39.67
2018-01-11T07:25:54.519Z,27.47
2018-01-11T07:28:20.875Z,28.10
2018-01-11T07:30:47.382Z,25.90
2018-01-11T07:33:14.646Z,27.50
2018-01-11T07:35:41.064Z,30.40
2018-01-11T07:38:07.442Z,31.03
2018-01-11T07:40:35.506Z,28.33
2018-01-11T07:43:02.027Z,31.03
2018-01-11T07:45:28.439Z,28.30
2018-01-11T07:47:54.816Z,30.30
2018-01-11T07:50:21.965Z,34.87
2018-01-11T07:52:48.520Z,37.67
2018-01-11T07:55:14.880Z,34.20
2018-01-11T07:57:42.108Z,31.33
2018-01-11T08:00:08.839Z,31.90
2018-01-11T08:02:35.676Z,30.70
2018-01-11T08:05:02.118Z,30.80
2018-01-11T08:07:29.643Z,31.47
2018-01-11T08:09:56.042Z,31.37
2018-01-11T08:12:23.123Z,28.60
2018-01-11T08:14:49.544Z,28.30
2018-01-11T08:17:16.869Z,26.27
2018-01-11T08:19:44.037Z,27.97
2018-01-11T08:22:10.549Z,30.07
2018-01-11T08:24:36.987Z,30.20
2018-01-11T08:27:05.141Z,31.67
2018-01-11T08:29:31.497Z,29.13
2018-01-11T08:31:57.957Z,30.50
2018-01-11T08:34:24.344Z,30.27
2018-01-11T08:36:51.084Z,94.63
2018-01-11T08:39:17.941Z,30.60
2018-01-11T08:41:44.843Z,29.30
2018-01-11T08:44:12.030Z,30.80
2018-01-11T08:46:38.808Z,32.53
2018-01-11T08:49:05.644Z,29.43
2018-01-11T08:51:32.090Z,32.30
2018-01-11T08:53:58.542Z,31.47
2018-01-11T08:56:25.352Z,31.00
2018-01-11T08:58:51.751Z,31.10
2018-01-11T09:01:18.568Z,32.13
2018-01-11T09:03:45.357Z,33.40
2018-01-11T09:06:12.475Z,33.17
2018-01-11T09:08:38.994Z,32.57
2018-01-11T09:11:07.309Z,31.80
2018-01-11T09:13:34.051Z,32.23
2018-01-11T09:16:01.514Z,32.07
2018-01-11T09:18:27.962Z,37.27
2018-01-11T09:20:56.190Z,34.50
2018-01-11T09:23:22.674Z,33.43
2018-01-11T09:25:49.074Z,32.43
2018-01-11T09:28:15.505Z,32.47
2018-01-11T09:30:42.265Z,30.67
2018-01-11T09:33:09.398Z,32.40
2018-01-11T09:35:36.532Z,32.90
2018-01-11T09:38:02.907Z,34.53
2018-01-11T09:40:29.432Z,31.60
2018-01-11T09:42:55.859Z,33.03
2018-01-11T09:45:23.031Z,31.80
2018-01-11T09:47:49.467Z,30.27
2018-01-11T09:50:15.977Z,33.83
2018-01-11T09:52:43.148Z,34.20
2018-01-11T09:55:09.985Z,35.40
2018-01-11T09:57:36.408Z,37.13
2018-01-11T10:00:02.808Z,35.57
2018-01-11T10:02:29.235Z,36.10
2018-01-11T10:04:55.664Z,36.00
2018-01-11T10:07:22.506Z,35.70
2018-01-11T10:09:48.944Z,37.80
2018-01-11T10:12:16.813Z,38.10
2018-01-11T10:14:43.570Z,39.40
2018-01-11T10:17:10.364Z,45.20
2018-01-11T10:19:36.769Z,40.57
2018-01-11T10:22:03.266Z,45.73
2018-01-11T10:24:30.094Z,45.70
2018-01-11T10:26:56.705Z,48.30
2018-01-11T10:29:23.073Z,47.00
2018-01-11T10:31:49.508Z,45.00
2018-01-11T10:34:16.608Z,47.87
2018-01-11T10:36:44.715Z,45.10
2018-01-11T10:39:11.130Z,47.30
2018-01-11T10:41:37.550Z,46.33
2018-01-11T10:44:04.443Z,44.37
2018-01-11T10:46:31.693Z,47.27
2018-01-11T10:48:58.854Z,48.43
2018-01-11T10:51:27.258Z,46.80
2018-01-11T10:53:55.801Z,47.00
2018-01-11T10:56:22.688Z,49.43
2018-01-11T10:58:54.306Z,45.17
2018-01-11T11:01:26.570Z,47.37
2018-01-11T11:03:52.946Z,47.43
2018-01-11T11:06:19.335Z,45.90
2018-01-11T11:08:46.288Z,46.77
2018-01-11T11:11:12.994Z,47.00
2018-01-11T11:13:39.457Z,46.00
2018-01-11T11:16:06.315Z,48.30
2018-01-11T11:18:33.155Z,47.80
2018-01-11T11:21:01.286Z,50.90
2018-01-11T11:23:27.715Z,47.00
2018-01-11T11:25:54.196Z,46.20
2018-01-11T11:28:20.769Z,49.00
2018-01-11T11:30:48.011Z,46.37
2018-01-11T11:33:15.133Z,47.13
2018-01-11T11:35:42.656Z,44.30
2018-01-11T11:38:09.376Z,45.30
2018-01-11T11:40:37.459Z,49.47
2018-01-11T11:43:04.682Z,43.97
2018-01-11T11:45:31.051Z,44.83
2018-01-11T11:47:58.212Z,43.40
2018-01-11T11:50:26.316Z,40.70
2018-01-11T11:52:53.197Z,42.67
2018-01-11T11:55:20.689Z,42.27
2018-01-11T11:57:47.771Z,43.70
2018-01-11T12:00:14.493Z,39.37
2018-01-11T12:02:41.752Z,40.90
2018-01-11T12:05:08.865Z,40.57
2018-01-11T12:07:35.666Z,38.90
2018-01-11T12:10:02.669Z,37.57
2018-01-11T12:12:29.059Z,40.00
2018-01-11T12:14:56.966Z,38.97
2018-01-11T12:17:24.276Z,34.93
2018-01-11T12:19:50.819Z,34.70
2018-01-11T12:22:18.792Z,33.93
2018-01-11T12:24:45.806Z,34.20
2018-01-11T12:27:13.018Z,34.70
2018-01-11T12:29:41.942Z,34.70
2018-01-11T12:32:08.340Z,29.70
2018-01-11T12:34:34.762Z,32.33
2018-01-11T12:37:01.391Z,28.10
2018-01-11T12:39:28.658Z,26.67
2018-01-11T12:41:55.500Z,27.73
2018-01-11T12:44:22.238Z,27.67
2018-01-11T12:46:48.649Z,26.37
2018-01-11T12:49:16.709Z,23.87
2018-01-11T12:51:44.607Z,24.90
2018-01-11T12:54:11.612Z,28.10
2018-01-11T12:56:38.741Z,25.10
2018-01-11T12:59:05.959Z,25.83
2018-01-11T13:01:32.732Z,26.47
2018-01-11T13:04:00.602Z,22.93
2018-01-11T13:06:28.712Z,24.90
2018-01-11T13:08:56.033Z,24.00
2018-01-11T13:11:24.192Z,24.40
2018-01-11T13:13:50.943Z,21.77
2018-01-11T13:16:18.346Z,22.93
2018-01-11T13:18:44.797Z,21.57
2018-01-11T13:21:11.260Z,21.97
2018-01-11T13:35:01.941Z,21.33
2018-01-11T13:37:30.071Z,21.57
2018-01-11T13:39:57.329Z,18.80
2018-01-11T13:42:23.767Z,18.27
2018-01-11T13:44:50.920Z,19.70
2018-01-11T13:47:17.437Z,19.20
2018-01-11T13:49:45.688Z,16.90
2018-01-11T13:52:13.815Z,16.87
2018-01-11T13:54:41.324Z,17.37
2018-01-11T13:57:07.859Z,19.03
2018-01-11T13:59:34.399Z,18.73
2018-01-11T14:02:01.257Z,19.70
2018-01-11T14:04:29.499Z,16.80
2018-01-11T14:06:56.113Z,18.30
2018-01-11T14:09:23.635Z,19.53
2018-01-11T14:11:51.231Z,19.57
2018-01-11T14:14:19.506Z,21.20
2018-01-11T14:16:46.644Z,17.00
2018-01-11T14:19:13.802Z,19.23
2018-01-11T14:21:40.657Z,20.77
2018-01-11T14:24:07.506Z,20.73
2018-01-11T14:26:35.663Z,19.80
2018-01-11T14:29:03.035Z,20.93
2018-01-11T14:31:31.186Z,20.43
2018-01-11T14:33:57.562Z,19.40
2018-01-11T14:36:24.550Z,19.73
2018-01-11T14:38:52.600Z,20.70
2018-01-11T14:41:19.164Z,19.00
2018-01-11T14:43:47.367Z,19.27
2018-01-11T14:46:14.213Z,24.47
2018-01-11T14:48:42.573Z,24.03
2018-01-11T14:51:09.221Z,22.50
2018-01-11T14:53:36.469Z,21.27
2018-01-11T14:56:03.637Z,21.03
2018-01-11T14:58:30.072Z,22.07
2018-01-11T15:00:58.363Z,23.23
2018-01-11T15:03:26.536Z,24.30
2018-01-11T15:05:54.023Z,24.70
2018-01-11T15:08:20.882Z,25.30
2018-01-11T15:10:47.816Z,26.90
2018-01-11T15:13:14.701Z,27.83
2018-01-11T15:15:41.124Z,28.60
2018-01-11T15:18:07.562Z,27.00
2018-01-11T15:20:34.068Z,28.53
2018-01-11T15:23:00.473Z,27.93
2018-01-11T15:25:27.372Z,28.83
2018-01-11T15:27:53.829Z,27.50
2018-01-11T15:30:20.372Z,27.97
2018-01-11T15:32:47.974Z,29.27
2018-01-11T15:35:15.889Z,28.17
2018-01-11T15:37:43.108Z,30.53
2018-01-11T15:40:09.679Z,29.37
2018-01-11T15:42:37.720Z,27.83
2018-01-11T15:45:04.303Z,25.47
2018-01-11T15:47:31.203Z,26.10
2018-01-11T15:49:58.483Z,27.60
2018-01-11T15:52:24.889Z,27.97
2018-01-11T15:54:52.038Z,27.30
2018-01-11T15:57:18.482Z,23.97
2018-01-11T15:59:45.226Z,23.23
2018-01-11T16:02:12.804Z,23.83
2018-01-11T16:04:41.012Z,25.47
2018-01-11T16:07:08.977Z,24.00
2018-01-11T16:09:36.491Z,22.40
2018-01-11T16:12:04.088Z,22.00
2018-01-11T16:14:30.851Z,21.37
2018-01-11T16:16:57.290Z,20.73
2018-01-11T16:19:24.111Z,21.70
2018-01-11T16:21:50.568Z,20.60
2018-01-11T16:24:17.718Z,18.37
2018-01-11T16:26:44.968Z,21.13
2018-01-11T16:29:11.479Z,20.63
2018-01-11T16:31:38.757Z,21.33
2018-01-11T16:34:05.924Z,20.97
2018-01-11T16:36:33.637Z,19.87
2018-01-11T16:39:00.110Z,19.00
2018-01-11T16:41:26.670Z,20.60
2018-01-11T16:43:54.824Z,20.90
2018-01-11T16:46:21.887Z,21.37
2018-01-11T16:48:54.074Z,22.40
2018-01-11T16:51:20.772Z,21.37
2018-01-11T16:53:47.196Z,20.87
2018-01-11T16:56:13.808Z,18.97
2018-01-11T16:58:40.314Z,20.40
2018-01-11T17:01:07.552Z,20.97
2018-01-11T17:03:35.718Z,21.37
2018-01-11T17:06:03.425Z,23.53
2018-01-11T17:08:30.840Z,22.10
2018-01-11T17:10:57.293Z,22.33
2018-01-11T17:13:23.614Z,24.17
2018-01-11T17:15:50.008Z,23.90
2018-01-11T17:18:16.520Z,26.73
2018-01-11T17:20:43.992Z,28.43
2018-01-11T17:23:10.567Z,27.43
2018-01-11T17:25:36.948Z,27.20
2018-01-11T17:28:04.024Z,28.50
2018-01-11T17:30:31.306Z,26.50
2018-01-11T17:32:58.623Z,28.23
2018-01-11T17:35:27.369Z,26.60
2018-01-11T17:37:54.133Z,25.37
2018-01-11T17:40:20.959Z,26.20
2018-01-11T17:42:47.460Z,22.00
2018-01-11T17:45:14.296Z,24.50
2018-01-11T17:47:41.064Z,24.83
2018-01-11T17:50:08.430Z,26.30
2018-01-11T17:52:34.749Z,24.70
2018-01-11T17:55:01.572Z,23.60
2018-01-11T17:57:27.932Z,23.47
2018-01-11T17:59:54.336Z,23.33
2018-01-11T18:02:20.801Z,25.17
2018-01-11T18:04:47.349Z,25.83
2018-01-11T18:07:13.741Z,25.10
2018-01-11T18:09:41.682Z,25.97
2018-01-11T18:12:08.595Z,28.27
2018-01-11T18:14:36.089Z,33.20
2018-01-11T18:17:03.312Z,30.43
2018-01-11T18:19:30.257Z,32.60
2018-01-11T18:21:58.416Z,30.77
2018-01-11T18:24:24.989Z,32.67
2018-01-11T18:26:51.448Z,34.93
2018-01-11T18:29:18.515Z,37.93
2018-01-11T18:31:44.870Z,39.17
2018-01-11T18:34:11.196Z,36.40
2018-01-11T18:36:38.680Z,39.73
2018-01-11T18:39:05.514Z,38.67
2018-01-11T18:41:32.961Z,41.77
2018-01-11T18:43:59.555Z,41.30
2018-01-11T18:46:26.245Z,39.23
2018-01-11T18:48:52.780Z,43.10
2018-01-11T18:51:19.323Z,41.40
2018-01-11T18:53:46.628Z,42.50
2018-01-11T18:56:14.752Z,45.10
2018-01-11T18:58:41.680Z,43.20
2018-01-11T19:01:08.176Z,43.53
2018-01-11T19:03:35.396Z,41.60
2018-01-11T19:06:02.114Z,45.93
2018-01-11T19:08:29.011Z,47.33
2018-01-11T19:10:56.283Z,46.63
2018-01-11T19:13:22.738Z,46.80
2018-01-11T19:15:49.662Z,45.20
2018-01-11T19:18:16.245Z,47.20
2018-01-11T19:20:43.447Z,45.40
2018-01-11T19:23:10.412Z,47.83
2018-01-11T19:25:38.391Z,47.70
2018-01-11T19:28:06.261Z,49.13
2018-01-11T19:30:34.201Z,49.47
2018-01-11T19:33:00.901Z,51.33
2018-01-11T19:35:27.523Z,50.17
2018-01-11T19:37:54.378Z,51.03
2018-01-11T19:40:20.978Z,51.60
2018-01-11T19:42:47.564Z,52.60
2018-01-11T19:45:14.187Z,50.37
2018-01-11T19:47:42.249Z,45.30
2018-01-11T19:50:09.987Z,52.83
2018-01-11T19:52:36.714Z,52.57
2018-01-11T19:55:04.861Z,53.37
2018-01-11T19:57:31.512Z,51.43
2018-01-11T19:59:58.061Z,51.23
2018-01-11T20:02:24.988Z,53.10
2018-01-11T20:04:52.489Z,53.20
2018-01-11T20:07:20.402Z,54.27
2018-01-11T20:09:47.461Z,49.07
2018-01-11T20:12:15.029Z,49.43
2018-01-11T20:14:43.203Z,56.60
2018-01-11T20:17:09.729Z,51.33
2018-01-11T20:19:36.566Z,50.57
2018-01-11T20:24:57.404Z,56.23
2018-01-11T20:27:25.609Z,54.77
2018-01-11T20:29:53.602Z,56.30
2018-01-11T20:32:20.236Z,54.10
2018-01-11T20:34:47.257Z,51.60
2018-01-11T20:37:16.862Z,55.67
2018-01-11T20:39:44.363Z,55.00
2018-01-11T20:42:10.959Z,53.57
2018-01-11T20:44:37.512Z,55.67
2018-01-11T20:47:04.156Z,51.10
2018-01-11T20:49:30.691Z,54.90
2018-01-11T20:51:58.227Z,60.00
2018-01-11T20:54:24.865Z,55.40
2018-01-11T20:56:52.364Z,54.20
2018-01-11T20:59:19.044Z,58.10
2018-01-11T21:01:45.659Z,54.97
2018-01-11T21:04:12.193Z,53.73
2018-01-11T21:06:38.734Z,57.07
2018-01-11T21:09:05.239Z,58.70
2018-01-11T21:11:31.943Z,56.77
2018-01-11T21:13:58.482Z,53.93
2018-01-11T21:16:25.046Z,59.20
2018-01-11T21:18:52.093Z,54.80
2018-01-11T22:18:20.858Z,55.97
2018-01-11T22:20:47.357Z,55.07
2018-01-11T22:23:15.168Z,57.87
2018-01-11T22:25:42.362Z,55.53
2018-01-11T22:28:08.922Z,60.07
2018-01-11T22:30:35.934Z,55.50
2018-01-11T22:33:02.408Z,56.73
2018-01-11T22:35:29.546Z,57.10
2018-01-11T22:37:57.695Z,51.30
2018-01-11T22:40:24.645Z,52.20
2018-01-11T22:42:51.103Z,54.00
2018-01-11T22:45:17.962Z,52.90
2018-01-11T22:47:44.421Z,50.13
2018-01-11T22:50:11.725Z,53.70
2018-01-11T22:52:38.244Z,54.13
2018-01-11T22:55:05.059Z,49.20
2018-01-11T22:57:31.470Z,50.47
2018-01-11T22:59:58.008Z,51.67
2018-01-11T23:02:25.635Z,50.83
2018-01-11T23:04:52.062Z,48.13
2018-01-11T23:07:18.476Z,53.30
2018-01-11T23:09:44.919Z,52.17
2018-01-11T23:12:11.350Z,48.93
2018-01-11T23:14:37.716Z,49.80
2018-01-11T23:17:05.716Z,51.97
2018-01-11T23:19:32.260Z,52.20
2018-01-11T23:21:59.446Z,56.63
2018-01-11T23:24:26.096Z,51.10
2018-01-11T23:26:52.505Z,54.27
2018-01-11T23:29:19.719Z,51.73
2018-01-11T23:31:46.162Z,52.50
2018-01-11T23:34:12.565Z,51.97
2018-01-11T23:36:39.746Z,52.27
2018-01-11T23:39:06.319Z,50.67
2018-01-11T23:41:32.734Z,49.93
2018-01-11T23:43:59.153Z,51.90
2018-01-11T23:46:25.674Z,50.03
2018-01-11T23:48:52.210Z,52.10
2018-01-11T23:51:19.017Z,49.17
2018-01-11T23:53:45.467Z,49.50
2018-01-11T23:56:11.925Z,49.57
2018-01-11T23:58:39.462Z,49.37
